sensor_id;sensor_type;location;lat;lon;timestamp;temperature;humidity
11577;DHT22;5844;51.496;6.788;2024-02-04T00:01:39;10.60;40.80
11577;DHT22;5844;51.496;6.788;2024-02-04T00:04:05;10.60;41.40
11577;DHT22;5844;51.496;6.788;2024-02-04T00:06:31;10.50;39.50
11577;DHT22;5844;51.496;6.788;2024-02-04T00:08:56;10.60;40.60
11577;DHT22;5844;51.496;6.788;2024-02-04T00:11:22;10.50;39.00
11577;DHT22;5844;51.496;6.788;2024-02-04T00:13:48;10.50;39.80
11577;DHT22;5844;51.496;6.788;2024-02-04T00:16:14;10.50;43.70
11577;DHT22;5844;51.496;6.788;2024-02-04T00:18:40;10.50;44.30
11577;DHT22;5844;51.496;6.788;2024-02-04T00:21:05;10.50;44.80
11577;DHT22;5844;51.496;6.788;2024-02-04T00:23:31;10.50;45.70
11577;DHT22;5844;51.496;6.788;2024-02-04T00:25:57;10.50;46.90
11577;DHT22;5844;51.496;6.788;2024-02-04T00:28:22;10.50;50.20
11577;DHT22;5844;51.496;6.788;2024-02-04T00:30:48;10.40;52.40
11577;DHT22;5844;51.496;6.788;2024-02-04T00:33:15;10.50;53.30
11577;DHT22;5844;51.496;6.788;2024-02-04T00:35:41;10.50;53.10
11577;DHT22;5844;51.496;6.788;2024-02-04T00:38:07;10.50;53.80
11577;DHT22;5844;51.496;6.788;2024-02-04T00:40:34;10.50;56.20
11577;DHT22;5844;51.496;6.788;2024-02-04T00:43:00;10.50;58.00
11577;DHT22;5844;51.496;6.788;2024-02-04T00:45:26;10.40;61.40
11577;DHT22;5844;51.496;6.788;2024-02-04T00:47:51;10.40;93.80
11577;DHT22;5844;51.496;6.788;2024-02-04T00:50:17;10.40;70.60
11577;DHT22;5844;51.496;6.788;2024-02-04T00:52:43;10.40;69.80
11577;DHT22;5844;51.496;6.788;2024-02-04T00:55:09;10.40;72.50
11577;DHT22;5844;51.496;6.788;2024-02-04T00:57:34;10.40;71.90
11577;DHT22;5844;51.496;6.788;2024-02-04T01:00:00;10.40;72.20
11577;DHT22;5844;51.496;6.788;2024-02-04T01:02:25;10.40;73.30
11577;DHT22;5844;51.496;6.788;2024-02-04T01:07:26;10.40;76.90
11577;DHT22;5844;51.496;6.788;2024-02-04T01:09:52;10.40;79.20
11577;DHT22;5844;51.496;6.788;2024-02-04T01:12:18;10.40;79.80
11577;DHT22;5844;51.496;6.788;2024-02-04T01:14:43;10.40;99.90
11577;DHT22;5844;51.496;6.788;2024-02-04T01:17:09;10.40;83.20
11577;DHT22;5844;51.496;6.788;2024-02-04T01:19:34;10.40;82.90
11577;DHT22;5844;51.496;6.788;2024-02-04T01:22:00;10.40;87.00
11577;DHT22;5844;51.496;6.788;2024-02-04T01:24:26;10.40;86.30
11577;DHT22;5844;51.496;6.788;2024-02-04T01:26:51;10.40;87.80
11577;DHT22;5844;51.496;6.788;2024-02-04T01:29:17;10.40;87.00
11577;DHT22;5844;51.496;6.788;2024-02-04T01:31:43;10.50;87.40
11577;DHT22;5844;51.496;6.788;2024-02-04T01:34:08;10.40;86.60
11577;DHT22;5844;51.496;6.788;2024-02-04T01:36:34;10.40;89.60
11577;DHT22;5844;51.496;6.788;2024-02-04T01:39:00;10.40;89.50
11577;DHT22;5844;51.496;6.788;2024-02-04T01:41:25;10.40;90.00
11577;DHT22;5844;51.496;6.788;2024-02-04T01:43:53;10.50;90.40
11577;DHT22;5844;51.496;6.788;2024-02-04T01:46:19;10.50;91.20
11577;DHT22;5844;51.496;6.788;2024-02-04T01:48:45;10.50;92.40
11577;DHT22;5844;51.496;6.788;2024-02-04T01:51:12;10.40;91.40
11577;DHT22;5844;51.496;6.788;2024-02-04T01:53:41;10.50;90.90
11577;DHT22;5844;51.496;6.788;2024-02-04T01:56:09;10.50;92.10
11577;DHT22;5844;51.496;6.788;2024-02-04T01:58:35;10.50;91.30
11577;DHT22;5844;51.496;6.788;2024-02-04T02:01:01;10.50;91.90
11577;DHT22;5844;51.496;6.788;2024-02-04T02:03:28;10.50;91.70
11577;DHT22;5844;51.496;6.788;2024-02-04T02:05:56;10.50;92.80
11577;DHT22;5844;51.496;6.788;2024-02-04T02:08:22;10.60;92.90
11577;DHT22;5844;51.496;6.788;2024-02-04T02:10:50;10.60;93.10
11577;DHT22;5844;51.496;6.788;2024-02-04T02:13:27;10.60;92.70
11577;DHT22;5844;51.496;6.788;2024-02-04T02:16:06;10.60;94.10
11577;DHT22;5844;51.496;6.788;2024-02-04T02:18:48;10.60;94.10
11577;DHT22;5844;51.496;6.788;2024-02-04T02:21:26;10.70;93.40
11577;DHT22;5844;51.496;6.788;2024-02-04T02:26:36;10.80;90.60
11577;DHT22;5844;51.496;6.788;2024-02-04T02:29:05;10.80;85.70
11577;DHT22;5844;51.496;6.788;2024-02-04T02:31:31;10.90;81.40
11577;DHT22;5844;51.496;6.788;2024-02-04T02:33:57;10.90;81.30
11577;DHT22;5844;51.496;6.788;2024-02-04T02:36:24;10.90;79.40
11577;DHT22;5844;51.496;6.788;2024-02-04T02:39:05;10.90;79.00
11577;DHT22;5844;51.496;6.788;2024-02-04T02:41:35;10.90;72.20
11577;DHT22;5844;51.496;6.788;2024-02-04T02:44:03;10.90;68.10
11577;DHT22;5844;51.496;6.788;2024-02-04T02:46:30;11.00;68.20
11577;DHT22;5844;51.496;6.788;2024-02-04T02:48:56;10.90;67.20
11577;DHT22;5844;51.496;6.788;2024-02-04T02:51:22;11.00;62.60
11577;DHT22;5844;51.496;6.788;2024-02-04T02:53:48;10.90;58.50
11577;DHT22;5844;51.496;6.788;2024-02-04T02:56:14;11.00;58.70
11577;DHT22;5844;51.496;6.788;2024-02-04T02:58:39;11.00;56.50
11577;DHT22;5844;51.496;6.788;2024-02-04T03:01:05;10.90;55.70
11577;DHT22;5844;51.496;6.788;2024-02-04T03:03:31;11.00;53.10
11577;DHT22;5844;51.496;6.788;2024-02-04T03:05:56;11.00;53.30
11577;DHT22;5844;51.496;6.788;2024-02-04T03:08:22;11.00;53.00
11577;DHT22;5844;51.496;6.788;2024-02-04T03:10:47;11.00;52.30
11577;DHT22;5844;51.496;6.788;2024-02-04T03:13:13;11.00;51.60
11577;DHT22;5844;51.496;6.788;2024-02-04T03:15:39;11.00;51.90
11577;DHT22;5844;51.496;6.788;2024-02-04T03:18:06;11.00;49.20
11577;DHT22;5844;51.496;6.788;2024-02-04T03:20:32;11.00;50.80
11577;DHT22;5844;51.496;6.788;2024-02-04T03:22:57;11.00;50.40
11577;DHT22;5844;51.496;6.788;2024-02-04T03:25:23;11.00;51.80
11577;DHT22;5844;51.496;6.788;2024-02-04T03:27:52;10.90;51.40
11577;DHT22;5844;51.496;6.788;2024-02-04T03:30:18;10.90;51.10
11577;DHT22;5844;51.496;6.788;2024-02-04T03:32:44;10.90;53.70
11577;DHT22;5844;51.496;6.788;2024-02-04T03:35:09;10.80;56.60
11577;DHT22;5844;51.496;6.788;2024-02-04T03:37:35;10.80;55.30
11577;DHT22;5844;51.496;6.788;2024-02-04T03:40:01;10.90;54.20
11577;DHT22;5844;51.496;6.788;2024-02-04T03:42:26;10.80;54.90
11577;DHT22;5844;51.496;6.788;2024-02-04T03:44:52;10.80;55.80
11577;DHT22;5844;51.496;6.788;2024-02-04T03:47:17;10.80;56.20
11577;DHT22;5844;51.496;6.788;2024-02-04T03:49:43;10.80;56.60
11577;DHT22;5844;51.496;6.788;2024-02-04T03:52:09;10.80;57.20
11577;DHT22;5844;51.496;6.788;2024-02-04T03:54:34;10.80;58.60
11577;DHT22;5844;51.496;6.788;2024-02-04T03:57:00;10.80;58.30
11577;DHT22;5844;51.496;6.788;2024-02-04T03:59:25;10.80;59.10
11577;DHT22;5844;51.496;6.788;2024-02-04T04:01:51;10.80;59.40
11577;DHT22;5844;51.496;6.788;2024-02-04T04:04:19;10.80;60.40
11577;DHT22;5844;51.496;6.788;2024-02-04T04:06:45;10.80;60.40
11577;DHT22;5844;51.496;6.788;2024-02-04T04:09:11;10.70;63.60
11577;DHT22;5844;51.496;6.788;2024-02-04T04:11:37;10.80;63.10
11577;DHT22;5844;51.496;6.788;2024-02-04T04:14:02;10.80;66.70
11577;DHT22;5844;51.496;6.788;2024-02-04T04:16:28;10.80;64.10
11577;DHT22;5844;51.496;6.788;2024-02-04T04:18:54;10.80;64.00
11577;DHT22;5844;51.496;6.788;2024-02-04T04:21:20;10.80;62.40
11577;DHT22;5844;51.496;6.788;2024-02-04T04:23:46;10.80;64.90
11577;DHT22;5844;51.496;6.788;2024-02-04T04:26:12;10.80;62.40
11577;DHT22;5844;51.496;6.788;2024-02-04T04:28:37;10.80;64.60
11577;DHT22;5844;51.496;6.788;2024-02-04T04:31:03;10.80;59.70
11577;DHT22;5844;51.496;6.788;2024-02-04T04:33:29;10.80;57.10
11577;DHT22;5844;51.496;6.788;2024-02-04T04:35:55;10.80;57.30
11577;DHT22;5844;51.496;6.788;2024-02-04T04:38:21;10.80;55.80
11577;DHT22;5844;51.496;6.788;2024-02-04T04:40:47;10.90;50.80
11577;DHT22;5844;51.496;6.788;2024-02-04T04:43:13;10.90;46.90
11577;DHT22;5844;51.496;6.788;2024-02-04T04:45:38;11.00;42.40
11577;DHT22;5844;51.496;6.788;2024-02-04T04:48:04;11.00;37.90
11577;DHT22;5844;51.496;6.788;2024-02-04T04:50:30;11.00;35.50
11577;DHT22;5844;51.496;6.788;2024-02-04T04:52:55;11.10;31.70
11577;DHT22;5844;51.496;6.788;2024-02-04T04:55:21;11.00;32.00
11577;DHT22;5844;51.496;6.788;2024-02-04T04:57:47;11.00;28.60
11577;DHT22;5844;51.496;6.788;2024-02-04T05:00:13;11.10;28.20
11577;DHT22;5844;51.496;6.788;2024-02-04T05:02:42;11.10;26.20
11577;DHT22;5844;51.496;6.788;2024-02-04T05:05:10;11.10;25.10
11577;DHT22;5844;51.496;6.788;2024-02-04T05:07:36;11.10;21.30
11577;DHT22;5844;51.496;6.788;2024-02-04T05:10:02;11.20;19.40
11577;DHT22;5844;51.496;6.788;2024-02-04T05:12:27;11.10;15.00
11577;DHT22;5844;51.496;6.788;2024-02-04T05:14:53;11.10;16.50
11577;DHT22;5844;51.496;6.788;2024-02-04T05:17:18;11.10;18.20
11577;DHT22;5844;51.496;6.788;2024-02-04T05:19:44;11.10;18.30
11577;DHT22;5844;51.496;6.788;2024-02-04T05:22:10;11.20;16.70
11577;DHT22;5844;51.496;6.788;2024-02-04T05:24:35;11.10;16.60
11577;DHT22;5844;51.496;6.788;2024-02-04T05:27:01;11.20;14.40
11577;DHT22;5844;51.496;6.788;2024-02-04T05:29:27;11.10;14.50
11577;DHT22;5844;51.496;6.788;2024-02-04T05:31:52;11.10;15.30
11577;DHT22;5844;51.496;6.788;2024-02-04T05:34:18;11.10;16.90
11577;DHT22;5844;51.496;6.788;2024-02-04T05:36:44;11.10;15.90
11577;DHT22;5844;51.496;6.788;2024-02-04T05:39:14;11.00;16.10
11577;DHT22;5844;51.496;6.788;2024-02-04T05:41:40;11.00;16.00
11577;DHT22;5844;51.496;6.788;2024-02-04T05:44:06;11.10;15.20
11577;DHT22;5844;51.496;6.788;2024-02-04T05:46:34;11.10;14.50
11577;DHT22;5844;51.496;6.788;2024-02-04T05:49:00;11.10;16.10
11577;DHT22;5844;51.496;6.788;2024-02-04T05:51:27;11.00;16.20
11577;DHT22;5844;51.496;6.788;2024-02-04T05:53:53;11.00;15.60
11577;DHT22;5844;51.496;6.788;2024-02-04T05:56:18;11.00;16.10
11577;DHT22;5844;51.496;6.788;2024-02-04T05:58:46;11.00;14.50
11577;DHT22;5844;51.496;6.788;2024-02-04T06:01:11;11.00;14.50
11577;DHT22;5844;51.496;6.788;2024-02-04T06:03:37;11.00;16.70
11577;DHT22;5844;51.496;6.788;2024-02-04T06:06:03;11.00;16.80
11577;DHT22;5844;51.496;6.788;2024-02-04T06:08:29;11.00;17.00
11577;DHT22;5844;51.496;6.788;2024-02-04T06:10:55;11.00;17.70
11577;DHT22;5844;51.496;6.788;2024-02-04T06:13:20;10.90;18.30
11577;DHT22;5844;51.496;6.788;2024-02-04T06:15:46;11.00;19.30
11577;DHT22;5844;51.496;6.788;2024-02-04T06:18:12;10.90;21.20
11577;DHT22;5844;51.496;6.788;2024-02-04T06:20:37;10.90;24.60
11577;DHT22;5844;51.496;6.788;2024-02-04T06:23:03;10.80;27.00
11577;DHT22;5844;51.496;6.788;2024-02-04T06:25:29;10.80;31.80
11577;DHT22;5844;51.496;6.788;2024-02-04T06:27:54;10.80;34.50
11577;DHT22;5844;51.496;6.788;2024-02-04T06:30:20;10.80;39.10
11577;DHT22;5844;51.496;6.788;2024-02-04T06:32:49;10.70;42.10
11577;DHT22;5844;51.496;6.788;2024-02-04T06:35:15;10.70;44.60
11577;DHT22;5844;51.496;6.788;2024-02-04T06:37:41;10.70;47.60
11577;DHT22;5844;51.496;6.788;2024-02-04T06:40:09;10.70;50.70
11577;DHT22;5844;51.496;6.788;2024-02-04T06:42:35;10.70;53.30
11577;DHT22;5844;51.496;6.788;2024-02-04T06:45:01;10.70;54.90
11577;DHT22;5844;51.496;6.788;2024-02-04T06:47:26;10.70;55.80
11577;DHT22;5844;51.496;6.788;2024-02-04T06:49:52;10.60;57.30
11577;DHT22;5844;51.496;6.788;2024-02-04T06:52:18;10.60;59.30
11577;DHT22;5844;51.496;6.788;2024-02-04T06:54:44;10.60;60.50
11577;DHT22;5844;51.496;6.788;2024-02-04T06:57:09;10.60;62.40
11577;DHT22;5844;51.496;6.788;2024-02-04T06:59:35;10.60;60.60
11577;DHT22;5844;51.496;6.788;2024-02-04T07:02:00;10.60;59.70
11577;DHT22;5844;51.496;6.788;2024-02-04T07:04:26;10.60;59.10
11577;DHT22;5844;51.496;6.788;2024-02-04T07:06:52;10.60;58.80
11577;DHT22;5844;51.496;6.788;2024-02-04T07:09:17;10.60;58.20
11577;DHT22;5844;51.496;6.788;2024-02-04T07:11:43;10.70;57.90
11577;DHT22;5844;51.496;6.788;2024-02-04T07:14:09;10.70;85.90
11577;DHT22;5844;51.496;6.788;2024-02-04T07:16:34;10.70;54.60
11577;DHT22;5844;51.496;6.788;2024-02-04T07:19:00;10.70;53.90
11577;DHT22;5844;51.496;6.788;2024-02-04T07:21:26;10.70;52.20
11577;DHT22;5844;51.496;6.788;2024-02-04T07:23:51;10.70;53.10
11577;DHT22;5844;51.496;6.788;2024-02-04T07:26:17;10.70;53.70
11577;DHT22;5844;51.496;6.788;2024-02-04T07:28:42;10.70;52.90
11577;DHT22;5844;51.496;6.788;2024-02-04T07:31:08;10.70;82.40
11577;DHT22;5844;51.496;6.788;2024-02-04T07:33:34;10.70;60.60
11577;DHT22;5844;51.496;6.788;2024-02-04T07:35:59;10.70;50.00
11577;DHT22;5844;51.496;6.788;2024-02-04T07:38:25;10.70;49.30
11577;DHT22;5844;51.496;6.788;2024-02-04T07:40:50;10.70;50.10
11577;DHT22;5844;51.496;6.788;2024-02-04T07:43:16;10.70;48.80
11577;DHT22;5844;51.496;6.788;2024-02-04T07:45:42;10.70;46.70
11577;DHT22;5844;51.496;6.788;2024-02-04T07:48:07;10.80;45.30
11577;DHT22;5844;51.496;6.788;2024-02-04T07:50:34;10.80;47.30
11577;DHT22;5844;51.496;6.788;2024-02-04T07:53:00;10.80;45.20
11577;DHT22;5844;51.496;6.788;2024-02-04T07:55:26;10.80;43.90
11577;DHT22;5844;51.496;6.788;2024-02-04T07:57:51;10.90;41.50
11577;DHT22;5844;51.496;6.788;2024-02-04T08:00:17;10.90;32.80
11577;DHT22;5844;51.496;6.788;2024-02-04T08:02:46;11.00;33.10
11577;DHT22;5844;51.496;6.788;2024-02-04T08:05:12;10.90;26.90
11577;DHT22;5844;51.496;6.788;2024-02-04T08:07:38;10.90;24.10
11577;DHT22;5844;51.496;6.788;2024-02-04T08:10:05;10.90;23.00
11577;DHT22;5844;51.496;6.788;2024-02-04T08:12:31;10.90;23.20
11577;DHT22;5844;51.496;6.788;2024-02-04T08:14:56;10.90;27.50
11577;DHT22;5844;51.496;6.788;2024-02-04T08:17:22;10.80;29.40
11577;DHT22;5844;51.496;6.788;2024-02-04T08:19:48;10.80;32.00
11577;DHT22;5844;51.496;6.788;2024-02-04T08:22:13;10.80;31.50
11577;DHT22;5844;51.496;6.788;2024-02-04T08:24:39;10.80;32.40
11577;DHT22;5844;51.496;6.788;2024-02-04T08:27:05;10.80;35.40
11577;DHT22;5844;51.496;6.788;2024-02-04T08:29:31;10.80;33.50
11577;DHT22;5844;51.496;6.788;2024-02-04T08:31:57;10.90;31.30
11577;DHT22;5844;51.496;6.788;2024-02-04T08:34:23;10.90;30.00
11577;DHT22;5844;51.496;6.788;2024-02-04T08:36:52;11.00;29.70
11577;DHT22;5844;51.496;6.788;2024-02-04T08:39:18;11.00;29.50
11577;DHT22;5844;51.496;6.788;2024-02-04T08:41:43;11.00;26.80
11577;DHT22;5844;51.496;6.788;2024-02-04T08:44:09;11.00;24.50
11577;DHT22;5844;51.496;6.788;2024-02-04T08:46:35;11.00;22.90
11577;DHT22;5844;51.496;6.788;2024-02-04T08:49:00;11.00;20.60
11577;DHT22;5844;51.496;6.788;2024-02-04T08:51:26;11.00;20.40
11577;DHT22;5844;51.496;6.788;2024-02-04T08:53:51;11.10;19.20
11577;DHT22;5844;51.496;6.788;2024-02-04T08:56:17;11.00;21.30
11577;DHT22;5844;51.496;6.788;2024-02-04T08:58:45;11.10;23.40
11577;DHT22;5844;51.496;6.788;2024-02-04T09:01:11;11.00;23.50
11577;DHT22;5844;51.496;6.788;2024-02-04T09:03:36;11.00;26.00
11577;DHT22;5844;51.496;6.788;2024-02-04T09:06:02;11.00;28.80
11577;DHT22;5844;51.496;6.788;2024-02-04T09:08:28;10.90;31.30
11577;DHT22;5844;51.496;6.788;2024-02-04T09:10:53;10.90;35.30
11577;DHT22;5844;51.496;6.788;2024-02-04T09:13:19;10.90;36.60
11577;DHT22;5844;51.496;6.788;2024-02-04T09:15:44;10.80;38.40
11577;DHT22;5844;51.496;6.788;2024-02-04T09:18:10;10.80;39.50
11577;DHT22;5844;51.496;6.788;2024-02-04T09:20:36;10.80;37.70
11577;DHT22;5844;51.496;6.788;2024-02-04T09:23:01;10.80;37.70
11577;DHT22;5844;51.496;6.788;2024-02-04T09:25:28;10.80;37.80
11577;DHT22;5844;51.496;6.788;2024-02-04T09:27:54;10.80;39.90
11577;DHT22;5844;51.496;6.788;2024-02-04T09:30:19;10.80;41.50
11577;DHT22;5844;51.496;6.788;2024-02-04T09:32:45;10.80;38.20
11577;DHT22;5844;51.496;6.788;2024-02-04T09:35:11;10.90;36.70
11577;DHT22;5844;51.496;6.788;2024-02-04T09:37:37;10.90;37.20
11577;DHT22;5844;51.496;6.788;2024-02-04T09:40:03;10.90;30.50
11577;DHT22;5844;51.496;6.788;2024-02-04T09:42:30;10.90;30.50
11577;DHT22;5844;51.496;6.788;2024-02-04T09:44:56;10.90;27.70
11577;DHT22;5844;51.496;6.788;2024-02-04T09:47:22;10.90;30.00
11577;DHT22;5844;51.496;6.788;2024-02-04T09:49:48;10.90;33.70
11577;DHT22;5844;51.496;6.788;2024-02-04T09:52:18;10.90;38.00
11577;DHT22;5844;51.496;6.788;2024-02-04T09:54:45;10.90;40.40
11577;DHT22;5844;51.496;6.788;2024-02-04T09:57:13;10.90;40.60
11577;DHT22;5844;51.496;6.788;2024-02-04T09:59:41;11.00;42.00
11577;DHT22;5844;51.496;6.788;2024-02-04T10:02:08;10.90;40.00
11577;DHT22;5844;51.496;6.788;2024-02-04T10:04:35;10.90;43.00
11577;DHT22;5844;51.496;6.788;2024-02-04T10:07:01;10.90;43.90
11577;DHT22;5844;51.496;6.788;2024-02-04T10:09:27;10.90;43.90
11577;DHT22;5844;51.496;6.788;2024-02-04T10:11:53;10.90;43.70
11577;DHT22;5844;51.496;6.788;2024-02-04T10:14:18;10.90;44.00
11577;DHT22;5844;51.496;6.788;2024-02-04T10:16:45;10.90;42.70
11577;DHT22;5844;51.496;6.788;2024-02-04T10:19:11;11.00;46.40
11577;DHT22;5844;51.496;6.788;2024-02-04T10:21:37;11.00;44.20
11577;DHT22;5844;51.496;6.788;2024-02-04T10:24:03;11.00;39.00
11577;DHT22;5844;51.496;6.788;2024-02-04T10:26:29;11.10;38.10
11577;DHT22;5844;51.496;6.788;2024-02-04T10:29:00;11.10;38.80
11577;DHT22;5844;51.496;6.788;2024-02-04T10:31:26;11.20;34.60
11577;DHT22;5844;51.496;6.788;2024-02-04T10:33:52;11.20;33.30
11577;DHT22;5844;51.496;6.788;2024-02-04T10:36:18;11.30;30.90
11577;DHT22;5844;51.496;6.788;2024-02-04T10:38:44;11.30;32.00
11577;DHT22;5844;51.496;6.788;2024-02-04T10:41:14;11.30;24.50
11577;DHT22;5844;51.496;6.788;2024-02-04T10:43:44;11.30;25.30
11577;DHT22;5844;51.496;6.788;2024-02-04T10:46:13;11.40;23.20
11577;DHT22;5844;51.496;6.788;2024-02-04T10:48:42;11.40;22.20
11577;DHT22;5844;51.496;6.788;2024-02-04T10:51:14;11.50;21.10
11577;DHT22;5844;51.496;6.788;2024-02-04T10:53:41;11.50;17.10
11577;DHT22;5844;51.496;6.788;2024-02-04T10:56:30;11.50;12.60
11577;DHT22;5844;51.496;6.788;2024-02-04T10:58:58;11.50;12.00
11577;DHT22;5844;51.496;6.788;2024-02-04T11:01:26;11.40;15.00
11577;DHT22;5844;51.496;6.788;2024-02-04T11:03:53;11.30;37.10
11577;DHT22;5844;51.496;6.788;2024-02-04T11:06:20;11.40;16.70
11577;DHT22;5844;51.496;6.788;2024-02-04T11:08:46;11.40;16.90
11577;DHT22;5844;51.496;6.788;2024-02-04T11:11:12;11.40;15.40
11577;DHT22;5844;51.496;6.788;2024-02-04T11:13:41;11.50;14.20
11577;DHT22;5844;51.496;6.788;2024-02-04T11:19:23;11.50;12.50
11577;DHT22;5844;51.496;6.788;2024-02-04T11:22:23;11.40;8.20
11577;DHT22;5844;51.496;6.788;2024-02-04T11:27:54;11.40;15.40
11577;DHT22;5844;51.496;6.788;2024-02-04T11:30:20;11.40;19.80
11577;DHT22;5844;51.496;6.788;2024-02-04T11:32:45;11.30;21.90
11577;DHT22;5844;51.496;6.788;2024-02-04T11:35:12;11.30;25.80
11577;DHT22;5844;51.496;6.788;2024-02-04T11:37:38;11.30;32.10
11577;DHT22;5844;51.496;6.788;2024-02-04T11:40:07;11.20;29.80
11577;DHT22;5844;51.496;6.788;2024-02-04T11:42:33;11.20;34.50
11577;DHT22;5844;51.496;6.788;2024-02-04T11:45:09;11.20;38.40
11577;DHT22;5844;51.496;6.788;2024-02-04T11:47:37;11.30;43.70
11577;DHT22;5844;51.496;6.788;2024-02-04T11:50:03;11.10;47.30
11577;DHT22;5844;51.496;6.788;2024-02-04T11:52:29;11.20;49.40
11577;DHT22;5844;51.496;6.788;2024-02-04T11:54:55;11.10;53.00
11577;DHT22;5844;51.496;6.788;2024-02-04T11:57:21;11.10;56.00
11577;DHT22;5844;51.496;6.788;2024-02-04T11:59:48;11.10;60.50
11577;DHT22;5844;51.496;6.788;2024-02-04T12:02:17;11.10;59.80
11577;DHT22;5844;51.496;6.788;2024-02-04T12:04:44;11.10;58.80
11577;DHT22;5844;51.496;6.788;2024-02-04T12:07:10;11.10;60.90
11577;DHT22;5844;51.496;6.788;2024-02-04T12:09:36;11.10;60.20
11577;DHT22;5844;51.496;6.788;2024-02-04T12:12:04;11.20;64.00
11577;DHT22;5844;51.496;6.788;2024-02-04T12:14:30;11.20;59.70
11577;DHT22;5844;51.496;6.788;2024-02-04T12:16:56;11.20;62.50
11577;DHT22;5844;51.496;6.788;2024-02-04T12:19:25;11.20;57.70
11577;DHT22;5844;51.496;6.788;2024-02-04T12:21:52;11.20;59.50
11577;DHT22;5844;51.496;6.788;2024-02-04T12:24:20;11.20;58.90
11577;DHT22;5844;51.496;6.788;2024-02-04T12:26:46;11.30;60.30
11577;DHT22;5844;51.496;6.788;2024-02-04T12:29:13;11.30;60.00
11577;DHT22;5844;51.496;6.788;2024-02-04T12:31:40;11.30;58.50
11577;DHT22;5844;51.496;6.788;2024-02-04T12:34:07;11.30;59.00
11577;DHT22;5844;51.496;6.788;2024-02-04T12:36:33;11.30;55.70
11577;DHT22;5844;51.496;6.788;2024-02-04T12:39:03;11.40;86.40
11577;DHT22;5844;51.496;6.788;2024-02-04T12:41:29;11.40;55.70
11577;DHT22;5844;51.496;6.788;2024-02-04T12:43:56;11.40;54.30
11577;DHT22;5844;51.496;6.788;2024-02-04T12:46:22;11.40;52.10
11577;DHT22;5844;51.496;6.788;2024-02-04T12:48:56;11.40;52.70
11577;DHT22;5844;51.496;6.788;2024-02-04T12:51:30;11.40;51.80
11577;DHT22;5844;51.496;6.788;2024-02-04T12:54:07;11.40;51.60
11577;DHT22;5844;51.496;6.788;2024-02-04T12:56:47;11.40;53.20
11577;DHT22;5844;51.496;6.788;2024-02-04T12:59:30;11.40;52.40
11577;DHT22;5844;51.496;6.788;2024-02-04T13:02:00;11.40;53.60
11577;DHT22;5844;51.496;6.788;2024-02-04T13:04:26;11.40;52.70
11577;DHT22;5844;51.496;6.788;2024-02-04T13:06:52;11.30;54.10
11577;DHT22;5844;51.496;6.788;2024-02-04T13:09:18;11.30;55.20
11577;DHT22;5844;51.496;6.788;2024-02-04T13:11:45;11.30;53.20
11577;DHT22;5844;51.496;6.788;2024-02-04T13:14:11;11.30;57.10
11577;DHT22;5844;51.496;6.788;2024-02-04T13:16:37;11.30;56.50
11577;DHT22;5844;51.496;6.788;2024-02-04T13:19:04;11.40;57.80
11577;DHT22;5844;51.496;6.788;2024-02-04T13:21:30;11.30;57.80
11577;DHT22;5844;51.496;6.788;2024-02-04T13:23:56;11.30;57.50
11577;DHT22;5844;51.496;6.788;2024-02-04T13:26:22;11.40;57.70
11577;DHT22;5844;51.496;6.788;2024-02-04T13:28:47;11.40;56.20
11577;DHT22;5844;51.496;6.788;2024-02-04T13:31:14;11.40;54.70
11577;DHT22;5844;51.496;6.788;2024-02-04T13:33:40;11.40;57.60
11577;DHT22;5844;51.496;6.788;2024-02-04T13:36:07;11.40;56.00
11577;DHT22;5844;51.496;6.788;2024-02-04T13:38:36;11.40;55.40
11577;DHT22;5844;51.496;6.788;2024-02-04T13:41:03;11.50;56.10
11577;DHT22;5844;51.496;6.788;2024-02-04T13:43:33;11.50;50.60
11577;DHT22;5844;51.496;6.788;2024-02-04T13:46:02;11.50;48.80
11577;DHT22;5844;51.496;6.788;2024-02-04T13:48:28;11.50;47.00
11577;DHT22;5844;51.496;6.788;2024-02-04T13:50:53;11.40;47.60
11577;DHT22;5844;51.496;6.788;2024-02-04T13:53:20;11.40;49.90
11577;DHT22;5844;51.496;6.788;2024-02-04T13:55:46;11.40;52.20
11577;DHT22;5844;51.496;6.788;2024-02-04T13:58:12;11.40;54.50
11577;DHT22;5844;51.496;6.788;2024-02-04T14:00:37;11.40;57.70
11577;DHT22;5844;51.496;6.788;2024-02-04T14:03:03;11.40;56.00
11577;DHT22;5844;51.496;6.788;2024-02-04T14:05:29;11.40;58.10
11577;DHT22;5844;51.496;6.788;2024-02-04T14:07:55;11.40;56.80
11577;DHT22;5844;51.496;6.788;2024-02-04T14:10:20;11.40;56.30
11577;DHT22;5844;51.496;6.788;2024-02-04T14:12:47;11.40;57.10
11577;DHT22;5844;51.496;6.788;2024-02-04T14:15:12;11.40;56.40
11577;DHT22;5844;51.496;6.788;2024-02-04T14:17:38;11.40;60.00
11577;DHT22;5844;51.496;6.788;2024-02-04T14:20:05;11.30;63.40
11577;DHT22;5844;51.496;6.788;2024-02-04T14:22:32;11.40;61.00
11577;DHT22;5844;51.496;6.788;2024-02-04T14:24:57;11.40;62.20
11577;DHT22;5844;51.496;6.788;2024-02-04T14:27:25;11.40;63.20
11577;DHT22;5844;51.496;6.788;2024-02-04T14:29:51;11.40;62.70
11577;DHT22;5844;51.496;6.788;2024-02-04T14:32:16;11.40;63.40
11577;DHT22;5844;51.496;6.788;2024-02-04T14:34:42;11.40;56.40
11577;DHT22;5844;51.496;6.788;2024-02-04T14:37:08;11.40;55.90
11577;DHT22;5844;51.496;6.788;2024-02-04T14:39:34;11.40;55.40
11577;DHT22;5844;51.496;6.788;2024-02-04T14:41:59;11.50;52.90
11577;DHT22;5844;51.496;6.788;2024-02-04T14:44:26;11.40;52.10
11577;DHT22;5844;51.496;6.788;2024-02-04T14:46:52;11.40;47.10
11577;DHT22;5844;51.496;6.788;2024-02-04T14:49:17;11.50;46.00
11577;DHT22;5844;51.496;6.788;2024-02-04T14:51:43;11.50;44.60
11577;DHT22;5844;51.496;6.788;2024-02-04T14:54:09;11.50;45.00
11577;DHT22;5844;51.496;6.788;2024-02-04T14:56:42;11.50;42.00
11577;DHT22;5844;51.496;6.788;2024-02-04T14:59:11;11.50;41.20
11577;DHT22;5844;51.496;6.788;2024-02-04T15:01:37;11.50;37.80
11577;DHT22;5844;51.496;6.788;2024-02-04T15:04:04;11.50;35.40
11577;DHT22;5844;51.496;6.788;2024-02-04T15:06:30;11.40;37.30
11577;DHT22;5844;51.496;6.788;2024-02-04T15:08:57;11.40;37.80
11577;DHT22;5844;51.496;6.788;2024-02-04T15:11:25;11.40;36.80
11577;DHT22;5844;51.496;6.788;2024-02-04T15:13:52;11.40;33.20
11577;DHT22;5844;51.496;6.788;2024-02-04T15:16:18;11.50;31.60
11577;DHT22;5844;51.496;6.788;2024-02-04T15:18:44;11.50;31.50
11577;DHT22;5844;51.496;6.788;2024-02-04T15:21:10;11.40;33.50
11577;DHT22;5844;51.496;6.788;2024-02-04T15:23:36;11.30;35.50
11577;DHT22;5844;51.496;6.788;2024-02-04T15:26:04;11.30;35.20
11577;DHT22;5844;51.496;6.788;2024-02-04T15:28:33;11.30;38.00
11577;DHT22;5844;51.496;6.788;2024-02-04T15:30:59;11.30;38.90
11577;DHT22;5844;51.496;6.788;2024-02-04T15:33:24;11.30;40.00
11577;DHT22;5844;51.496;6.788;2024-02-04T15:35:50;11.20;42.20
11577;DHT22;5844;51.496;6.788;2024-02-04T15:38:16;11.20;44.30
11577;DHT22;5844;51.496;6.788;2024-02-04T15:40:42;11.30;45.40
11577;DHT22;5844;51.496;6.788;2024-02-04T15:43:09;11.20;45.80
11577;DHT22;5844;51.496;6.788;2024-02-04T15:45:35;11.20;47.20
11577;DHT22;5844;51.496;6.788;2024-02-04T15:48:03;11.20;48.10
11577;DHT22;5844;51.496;6.788;2024-02-04T15:50:30;11.20;45.60
11577;DHT22;5844;51.496;6.788;2024-02-04T15:52:56;11.20;44.00